sensor_id;sensor_type;location;lat;lon;timestamp;P1;durP1;ratioP1;P2;durP2;ratioP2
41426;SDS011;27171;51.812;19.514;2023-03-21T00:00:05;30.10;;;21.77;;
41426;SDS011;27171;51.812;19.514;2023-03-21T00:03:07;34.47;;;24.58;;
41426;SDS011;27171;51.812;19.514;2023-03-21T00:06:09;33.25;;;23.77;;
41426;SDS011;27171;51.812;19.514;2023-03-21T00:09:11;36.15;;;26.17;;
41426;SDS011;27171;51.812;19.514;2023-03-21T00:15:13;40.33;;;28.35;;
41426;SDS011;27171;51.812;19.514;2023-03-21T00:18:18;40.60;;;28.42;;
41426;SDS011;27171;51.812;19.514;2023-03-21T00:21:22;35.13;;;24.90;;
41426;SDS011;27171;51.812;19.514;2023-03-21T00:24:25;40.55;;;28.15;;
41426;SDS011;27171;51.812;19.514;2023-03-21T00:30:29;32.72;;;23.65;;
41426;SDS011;27171;51.812;19.514;2023-03-21T10:50:27;15.20;;;12.43;;
41426;SDS011;27171;51.812;19.514;2023-03-21T10:53:31;16.90;;;13.52;;
41426;SDS011;27171;51.812;19.514;2023-03-21T10:56:36;17.35;;;14.80;;
41426;SDS011;27171;51.812;19.514;2023-03-21T10:59:42;16.50;;;14.20;;
41426;SDS011;27171;51.812;19.514;2023-03-21T11:02:47;14.50;;;11.88;;
41426;SDS011;27171;51.812;19.514;2023-03-21T11:05:54;17.08;;;13.27;;
41426;SDS011;27171;51.812;19.514;2023-03-21T11:09:00;13.20;;;11.80;;
41426;SDS011;27171;51.812;19.514;2023-03-21T11:12:09;13.85;;;11.68;;
41426;SDS011;27171;51.812;19.514;2023-03-21T11:18:41;14.32;;;12.18;;
41426;SDS011;27171;51.812;19.514;2023-03-21T11:21:44;14.32;;;12.35;;
41426;SDS011;27171;51.812;19.514;2023-03-21T11:24:48;15.57;;;12.85;;
41426;SDS011;27171;51.812;19.514;2023-03-21T11:27:53;17.73;;;14.02;;
41426;SDS011;27171;51.812;19.514;2023-03-21T11:30:56;16.90;;;13.82;;
41426;SDS011;27171;51.812;19.514;2023-03-21T11:33:59;16.25;;;13.73;;
41426;SDS011;27171;51.812;19.514;2023-03-21T11:37:16;19.83;;;14.67;;
41426;SDS011;27171;51.812;19.514;2023-03-21T11:43:35;16.35;;;13.95;;
41426;SDS011;27171;51.812;19.514;2023-03-21T11:46:39;15.35;;;13.55;;
41426;SDS011;27171;51.812;19.514;2023-03-21T11:49:40;16.67;;;14.85;;
41426;SDS011;27171;51.812;19.514;2023-03-21T11:53:18;18.20;;;16.23;;
41426;SDS011;27171;51.812;19.514;2023-03-21T11:56:31;17.02;;;13.27;;
41426;SDS011;27171;51.812;19.514;2023-03-21T11:59:39;16.52;;;14.82;;
41426;SDS011;27171;51.812;19.514;2023-03-21T12:06:47;18.50;;;16.23;;
41426;SDS011;27171;51.812;19.514;2023-03-21T12:22:37;18.95;;;16.60;;
41426;SDS011;27171;51.812;19.514;2023-03-21T12:42:45;16.45;;;14.00;;
41426;SDS011;27171;51.812;19.514;2023-03-21T12:46:00;16.50;;;13.88;;
41426;SDS011;27171;51.812;19.514;2023-03-21T12:52:29;15.50;;;12.52;;
41426;SDS011;27171;51.812;19.514;2023-03-21T12:55:36;14.10;;;12.60;;
41426;SDS011;27171;51.812;19.514;2023-03-21T12:58:50;16.55;;;13.73;;
41426;SDS011;27171;51.812;19.514;2023-03-21T13:01:57;15.05;;;13.48;;
41426;SDS011;27171;51.812;19.514;2023-03-21T13:05:06;13.80;;;11.23;;
41426;SDS011;27171;51.812;19.514;2023-03-21T13:11:38;13.63;;;12.02;;
41426;SDS011;27171;51.812;19.514;2023-03-21T13:14:43;13.65;;;12.25;;
41426;SDS011;27171;51.812;19.514;2023-03-21T13:18:01;13.43;;;11.43;;
41426;SDS011;27171;51.812;19.514;2023-03-21T13:21:14;12.35;;;11.05;;
41426;SDS011;27171;51.812;19.514;2023-03-21T13:24:39;14.50;;;10.93;;
41426;SDS011;27171;51.812;19.514;2023-03-21T13:27:42;13.82;;;12.02;;
41426;SDS011;27171;51.812;19.514;2023-03-21T13:30:49;15.38;;;12.35;;
41426;SDS011;27171;51.812;19.514;2023-03-21T13:33:55;12.63;;;10.98;;
41426;SDS011;27171;51.812;19.514;2023-03-21T13:36:59;13.35;;;11.88;;
41426;SDS011;27171;51.812;19.514;2023-03-21T13:40:03;14.07;;;12.13;;
41426;SDS011;27171;51.812;19.514;2023-03-21T13:46:34;12.20;;;10.98;;
41426;SDS011;27171;51.812;19.514;2023-03-21T13:49:43;13.50;;;12.10;;
41426;SDS011;27171;51.812;19.514;2023-03-21T13:53:21;11.73;;;9.57;;
41426;SDS011;27171;51.812;19.514;2023-03-21T13:56:24;13.55;;;11.88;;
41426;SDS011;27171;51.812;19.514;2023-03-21T14:05:57;13.82;;;12.35;;
41426;SDS011;27171;51.812;19.514;2023-03-21T14:08:58;16.55;;;14.23;;
41426;SDS011;27171;51.812;19.514;2023-03-21T14:12:00;13.60;;;12.15;;
41426;SDS011;27171;51.812;19.514;2023-03-21T14:15:11;12.23;;;10.95;;
41426;SDS011;27171;51.812;19.514;2023-03-21T14:18:14;11.13;;;9.93;;
41426;SDS011;27171;51.812;19.514;2023-03-21T14:21:19;12.95;;;11.60;;
41426;SDS011;27171;51.812;19.514;2023-03-21T14:24:26;11.82;;;10.23;;
41426;SDS011;27171;51.812;19.514;2023-03-21T14:27:30;11.45;;;9.85;;
41426;SDS011;27171;51.812;19.514;2023-03-21T14:30:35;9.80;;;8.80;;
41426;SDS011;27171;51.812;19.514;2023-03-21T14:33:38;9.82;;;8.82;;
41426;SDS011;27171;51.812;19.514;2023-03-21T14:36:42;9.95;;;8.95;;
41426;SDS011;27171;51.812;19.514;2023-03-21T14:39:43;10.52;;;9.32;;
41426;SDS011;27171;51.812;19.514;2023-03-21T14:42:45;9.88;;;8.88;;
41426;SDS011;27171;51.812;19.514;2023-03-21T14:45:49;11.70;;;9.60;;
41426;SDS011;27171;51.812;19.514;2023-03-21T14:48:52;10.98;;;9.77;;
41426;SDS011;27171;51.812;19.514;2023-03-21T14:54:55;10.65;;;9.00;;
41426;SDS011;27171;51.812;19.514;2023-03-21T14:57:57;9.27;;;7.88;;
41426;SDS011;27171;51.812;19.514;2023-03-21T15:01:02;11.40;;;8.55;;
41426;SDS011;27171;51.812;19.514;2023-03-21T15:04:05;9.35;;;8.10;;
41426;SDS011;27171;51.812;19.514;2023-03-21T15:07:21;10.48;;;8.88;;
41426;SDS011;27171;51.812;19.514;2023-03-21T15:10:28;10.40;;;8.45;;
41426;SDS011;27171;51.812;19.514;2023-03-21T15:16:50;11.93;;;9.70;;
41426;SDS011;27171;51.812;19.514;2023-03-21T15:19:52;10.52;;;9.43;;
41426;SDS011;27171;51.812;19.514;2023-03-21T15:22:57;12.52;;;11.02;;
41426;SDS011;27171;51.812;19.514;2023-03-21T15:26:03;9.55;;;8.50;;
41426;SDS011;27171;51.812;19.514;2023-03-21T15:29:05;11.35;;;10.07;;
41426;SDS011;27171;51.812;19.514;2023-03-21T15:32:11;12.07;;;10.50;;
41426;SDS011;27171;51.812;19.514;2023-03-21T15:35:20;11.70;;;10.07;;
41426;SDS011;27171;51.812;19.514;2023-03-21T15:38:32;11.88;;;10.68;;
41426;SDS011;27171;51.812;19.514;2023-03-21T15:44:38;11.77;;;10.27;;
41426;SDS011;27171;51.812;19.514;2023-03-21T15:51:00;15.05;;;11.45;;
41426;SDS011;27171;51.812;19.514;2023-03-21T15:54:04;41.72;;;20.63;;
41426;SDS011;27171;51.812;19.514;2023-03-21T15:57:13;15.73;;;12.48;;
41426;SDS011;27171;51.812;19.514;2023-03-21T16:00:40;21.20;;;13.73;;
41426;SDS011;27171;51.812;19.514;2023-03-21T16:03:44;35.55;;;22.52;;
41426;SDS011;27171;51.812;19.514;2023-03-21T16:06:51;17.90;;;15.05;;
41426;SDS011;27171;51.812;19.514;2023-03-21T16:09:56;20.48;;;16.13;;
41426;SDS011;27171;51.812;19.514;2023-03-21T16:13:00;16.90;;;13.02;;
41426;SDS011;27171;51.812;19.514;2023-03-21T16:16:01;15.75;;;13.85;;
41426;SDS011;27171;51.812;19.514;2023-03-21T16:19:02;13.50;;;11.13;;
41426;SDS011;27171;51.812;19.514;2023-03-21T16:22:07;13.82;;;11.23;;
41426;SDS011;27171;51.812;19.514;2023-03-21T16:25:09;12.88;;;10.57;;
41426;SDS011;27171;51.812;19.514;2023-03-21T16:28:13;14.55;;;12.02;;
41426;SDS011;27171;51.812;19.514;2023-03-21T16:31:16;27.67;;;20.40;;
41426;SDS011;27171;51.812;19.514;2023-03-21T16:34:19;70.00;;;45.53;;
41426;SDS011;27171;51.812;19.514;2023-03-21T16:37:20;42.42;;;31.08;;
41426;SDS011;27171;51.812;19.514;2023-03-21T16:43:28;62.97;;;39.85;;
41426;SDS011;27171;51.812;19.514;2023-03-21T16:49:30;21.85;;;17.17;;
41426;SDS011;27171;51.812;19.514;2023-03-21T16:55:32;17.40;;;13.25;;
41426;SDS011;27171;51.812;19.514;2023-03-21T16:58:34;13.75;;;10.98;;
41426;SDS011;27171;51.812;19.514;2023-03-21T17:01:35;12.30;;;9.95;;
41426;SDS011;27171;51.812;19.514;2023-03-21T17:07:37;11.50;;;9.40;;
41426;SDS011;27171;51.812;19.514;2023-03-21T17:10:38;13.43;;;10.32;;
41426;SDS011;27171;51.812;19.514;2023-03-21T17:13:39;12.00;;;10.15;;
41426;SDS011;27171;51.812;19.514;2023-03-21T17:16:41;12.43;;;10.15;;
41426;SDS011;27171;51.812;19.514;2023-03-21T17:19:42;15.23;;;11.65;;
41426;SDS011;27171;51.812;19.514;2023-03-21T17:22:43;12.93;;;10.68;;
41426;SDS011;27171;51.812;19.514;2023-03-21T17:25:45;13.48;;;10.73;;
41426;SDS011;27171;51.812;19.514;2023-03-21T17:28:46;12.50;;;10.07;;
41426;SDS011;27171;51.812;19.514;2023-03-21T17:31:47;13.90;;;11.95;;
41426;SDS011;27171;51.812;19.514;2023-03-21T17:34:48;14.95;;;12.27;;
41426;SDS011;27171;51.812;19.514;2023-03-21T17:40:50;14.65;;;11.13;;
41426;SDS011;27171;51.812;19.514;2023-03-21T17:43:51;22.27;;;16.08;;
41426;SDS011;27171;51.812;19.514;2023-03-21T17:46:53;20.35;;;16.25;;
41426;SDS011;27171;51.812;19.514;2023-03-21T17:49:54;21.17;;;16.70;;
41426;SDS011;27171;51.812;19.514;2023-03-21T17:52:55;21.63;;;16.38;;
41426;SDS011;27171;51.812;19.514;2023-03-21T17:58:57;23.88;;;16.25;;
41426;SDS011;27171;51.812;19.514;2023-03-21T18:02:00;24.40;;;18.52;;
41426;SDS011;27171;51.812;19.514;2023-03-21T18:08:02;27.88;;;19.80;;
41426;SDS011;27171;51.812;19.514;2023-03-21T18:11:03;25.75;;;19.83;;
41426;SDS011;27171;51.812;19.514;2023-03-21T18:14:05;30.75;;;23.77;;
41426;SDS011;27171;51.812;19.514;2023-03-21T18:17:06;33.30;;;24.40;;
41426;SDS011;27171;51.812;19.514;2023-03-21T18:20:10;33.13;;;25.02;;
41426;SDS011;27171;51.812;19.514;2023-03-21T18:23:14;30.80;;;24.52;;
41426;SDS011;27171;51.812;19.514;2023-03-21T18:26:17;39.38;;;29.80;;
41426;SDS011;27171;51.812;19.514;2023-03-21T18:29:19;37.78;;;28.40;;
41426;SDS011;27171;51.812;19.514;2023-03-21T18:32:20;36.13;;;27.50;;
41426;SDS011;27171;51.812;19.514;2023-03-21T18:38:22;34.28;;;23.50;;
41426;SDS011;27171;51.812;19.514;2023-03-21T18:44:24;32.05;;;22.73;;
41426;SDS011;27171;51.812;19.514;2023-03-21T18:50:26;26.02;;;18.33;;
41426;SDS011;27171;51.812;19.514;2023-03-21T18:53:27;26.17;;;18.40;;
41426;SDS011;27171;51.812;19.514;2023-03-21T18:56:28;22.35;;;16.02;;
41426;SDS011;27171;51.812;19.514;2023-03-21T19:02:33;24.02;;;17.45;;
41426;SDS011;27171;51.812;19.514;2023-03-21T19:08:35;25.17;;;15.65;;
41426;SDS011;27171;51.812;19.514;2023-03-21T19:17:38;26.70;;;18.10;;
41426;SDS011;27171;51.812;19.514;2023-03-21T19:23:45;28.20;;;19.88;;
41426;SDS011;27171;51.812;19.514;2023-03-21T19:26:46;46.30;;;31.55;;
41426;SDS011;27171;51.812;19.514;2023-03-21T19:29:47;38.53;;;28.85;;
41426;SDS011;27171;51.812;19.514;2023-03-21T19:32:49;64.68;;;43.92;;
41426;SDS011;27171;51.812;19.514;2023-03-21T19:38:50;47.83;;;33.83;;
41426;SDS011;27171;51.812;19.514;2023-03-21T19:41:52;60.45;;;40.80;;
41426;SDS011;27171;51.812;19.514;2023-03-21T19:44:53;73.65;;;47.75;;
41426;SDS011;27171;51.812;19.514;2023-03-21T19:47:54;61.22;;;43.88;;
41426;SDS011;27171;51.812;19.514;2023-03-21T19:53:57;47.63;;;31.88;;
41426;SDS011;27171;51.812;19.514;2023-03-21T19:56:58;44.25;;;30.65;;
41426;SDS011;27171;51.812;19.514;2023-03-21T20:03:01;31.60;;;22.58;;
41426;SDS011;27171;51.812;19.514;2023-03-21T20:06:03;29.58;;;21.88;;
41426;SDS011;27171;51.812;19.514;2023-03-21T20:09:06;32.55;;;24.40;;
41426;SDS011;27171;51.812;19.514;2023-03-21T20:12:07;30.08;;;22.23;;
41426;SDS011;27171;51.812;19.514;2023-03-21T20:18:09;28.65;;;20.10;;
41426;SDS011;27171;51.812;19.514;2023-03-21T20:24:11;22.98;;;16.40;;
41426;SDS011;27171;51.812;19.514;2023-03-21T20:30:15;24.20;;;16.60;;
41426;SDS011;27171;51.812;19.514;2023-03-21T20:33:17;27.05;;;19.25;;
41426;SDS011;27171;51.812;19.514;2023-03-21T20:36:18;24.10;;;18.10;;
41426;SDS011;27171;51.812;19.514;2023-03-21T20:39:19;27.17;;;19.00;;
41426;SDS011;27171;51.812;19.514;2023-03-21T20:45:21;23.95;;;16.48;;
41426;SDS011;27171;51.812;19.514;2023-03-21T20:51:25;25.67;;;16.02;;
41426;SDS011;27171;51.812;19.514;2023-03-21T20:54:26;29.05;;;18.63;;
41426;SDS011;27171;51.812;19.514;2023-03-21T21:00:28;29.27;;;17.67;;
41426;SDS011;27171;51.812;19.514;2023-03-21T21:06:31;34.22;;;20.33;;
41426;SDS011;27171;51.812;19.514;2023-03-21T21:12:33;28.25;;;18.38;;
41426;SDS011;27171;51.812;19.514;2023-03-21T21:15:34;39.88;;;25.45;;
41426;SDS011;27171;51.812;19.514;2023-03-21T21:18:36;41.10;;;26.50;;
41426;SDS011;27171;51.812;19.514;2023-03-21T21:21:37;44.95;;;29.10;;
41426;SDS011;27171;51.812;19.514;2023-03-21T21:24:38;43.33;;;29.20;;
41426;SDS011;27171;51.812;19.514;2023-03-21T21:30:40;41.58;;;25.35;;
41426;SDS011;27171;51.812;19.514;2023-03-21T21:33:42;43.20;;;26.98;;
41426;SDS011;27171;51.812;19.514;2023-03-21T21:36:44;43.30;;;29.02;;
41426;SDS011;27171;51.812;19.514;2023-03-21T21:39:45;43.63;;;28.92;;
41426;SDS011;27171;51.812;19.514;2023-03-21T21:42:46;44.63;;;28.63;;
41426;SDS011;27171;51.812;19.514;2023-03-21T21:45:48;41.38;;;27.95;;
41426;SDS011;27171;51.812;19.514;2023-03-21T21:48:49;41.42;;;27.83;;
41426;SDS011;27171;51.812;19.514;2023-03-21T21:51:50;48.28;;;30.25;;
41426;SDS011;27171;51.812;19.514;2023-03-21T21:57:52;45.17;;;27.77;;
41426;SDS011;27171;51.812;19.514;2023-03-21T22:03:57;45.17;;;27.42;;
41426;SDS011;27171;51.812;19.514;2023-03-21T22:09:59;46.50;;;29.30;;
41426;SDS011;27171;51.812;19.514;2023-03-21T22:13:00;45.47;;;31.13;;
41426;SDS011;27171;51.812;19.514;2023-03-21T22:16:02;49.58;;;31.48;;
41426;SDS011;27171;51.812;19.514;2023-03-21T22:19:03;43.47;;;30.67;;
41426;SDS011;27171;51.812;19.514;2023-03-21T22:25:06;41.80;;;26.75;;
41426;SDS011;27171;51.812;19.514;2023-03-21T22:28:09;47.75;;;31.63;;
41426;SDS011;27171;51.812;19.514;2023-03-21T22:31:14;42.13;;;29.67;;
41426;SDS011;27171;51.812;19.514;2023-03-21T22:34:16;47.83;;;29.52;;
41426;SDS011;27171;51.812;19.514;2023-03-21T22:37:17;48.60;;;31.58;;
41426;SDS011;27171;51.812;19.514;2023-03-21T22:40:18;44.70;;;29.65;;
41426;SDS011;27171;51.812;19.514;2023-03-21T22:43:19;43.58;;;29.80;;
41426;SDS011;27171;51.812;19.514;2023-03-21T22:49:21;40.92;;;26.55;;
41426;SDS011;27171;51.812;19.514;2023-03-21T22:55:23;40.90;;;26.42;;
41426;SDS011;27171;51.812;19.514;2023-03-21T23:01:25;44.78;;;29.67;;
41426;SDS011;27171;51.812;19.514;2023-03-21T23:07:27;40.70;;;27.23;;
41426;SDS011;27171;51.812;19.514;2023-03-21T23:13:29;42.13;;;26.73;;
41426;SDS011;27171;51.812;19.514;2023-03-21T23:19:31;47.17;;;28.23;;
41426;SDS011;27171;51.812;19.514;2023-03-21T23:25:33;46.47;;;28.92;;
41426;SDS011;27171;51.812;19.514;2023-03-21T23:34:37;44.88;;;25.67;;
41426;SDS011;27171;51.812;19.514;2023-03-21T23:37:38;44.05;;;29.65;;
41426;SDS011;27171;51.812;19.514;2023-03-21T23:40:39;47.80;;;30.42;;
41426;SDS011;27171;51.812;19.514;2023-03-21T23:46:41;40.03;;;26.92;;
41426;SDS011;27171;51.812;19.514;2023-03-21T23:52:43;41.83;;;25.38;;
41426;SDS011;27171;51.812;19.514;2023-03-21T23:58:46;41.45;;;26.52;;
